Time;durP1;ratioP1;P1;durP2;ratioP2;P2;SDS_P1;SDS_P2;PMS_P1;PMS_P2;Temp;Humidity;BMP_temperature;BMP_pressure;BME280_temperature;BME280_humidity;BME280_pressure;Samples;Min_cycle;Max_cycle;Signal;HPM_P1;HPM_P2
2021/12/22 00:01:55;;;;;;;5.85;2.78;;;;;;;;;;5136005;27;20022;-73
2021/12/22 00:04:24;;;;;;;6.65;2.72;;;;;;;;;;5154414;27;20083;-73
2021/12/22 00:06:52;;;;;;;7.18;3.03;;;;;;;;;;5154523;27;20018;-73
2021/12/22 00:09:19;;;;;;;7.90;3.28;;;;;;;;;;5154467;27;20030;-72
2021/12/22 00:11:48;;;;;;;7.43;3.42;;;;;;;;;;5154603;27;20505;-72
2021/12/22 00:14:16;;;;;;;7.70;3.72;;;;;;;;;;5135614;27;20023;-73
2021/12/22 00:16:43;;;;;;;8.60;3.38;;;;;;;;;;5154301;27;20027;-73
2021/12/22 00:19:10;;;;;;;11.05;3.78;;;;;;;;;;5135804;27;20102;-73
2021/12/22 00:21:38;;;;;;;8.80;3.33;;;;;;;;;;5154401;27;20023;-73
2021/12/22 00:24:05;;;;;;;7.25;3.20;;;;;;;;;;5135667;27;20019;-72
2021/12/22 00:26:32;;;;;;;7.55;3.38;;;;;;;;;;5154163;27;20413;-73
2021/12/22 00:28:59;;;;;;;7.15;3.50;;;;;;;;;;5135302;27;20019;-72
2021/12/22 00:31:27;;;;;;;7.57;3.55;;;;;;;;;;5135781;27;20038;-73
2021/12/22 00:33:56;;;;;;;7.68;3.55;;;;;;;;;;5154155;27;20015;-73
2021/12/22 00:36:24;;;;;;;9.83;4.50;;;;;;;;;;5154208;27;20378;-73
2021/12/22 00:38:53;;;;;;;8.85;4.07;;;;;;;;;;5154245;27;20091;-73
2021/12/22 00:41:20;;;;;;;9.23;3.35;;;;;;;;;;5154101;27;20023;-73
2021/12/22 00:43:47;;;;;;;6.30;3.30;;;;;;;;;;5154101;27;20029;-73
2021/12/22 00:46:14;;;;;;;7.63;3.22;;;;;;;;;;5154159;27;20034;-72
2021/12/22 00:48:42;;;;;;;7.47;3.03;;;;;;;;;;5157791;27;20519;-73
2021/12/22 00:51:09;;;;;;;6.60;3.30;;;;;;;;;;5157925;27;20025;-72
2021/12/22 00:53:36;;;;;;;8.40;3.25;;;;;;;;;;5157720;27;20051;-73
2021/12/22 00:56:04;;;;;;;7.93;3.60;;;;;;;;;;5157998;27;20063;-73
2021/12/22 00:58:31;;;;;;;8.25;3.33;;;;;;;;;;5138758;27;20027;-73
2021/12/22 01:00:59;;;;;;;6.32;3.47;;;;;;;;;;5139265;27;20023;-73
2021/12/22 01:03:26;;;;;;;8.32;3.65;;;;;;;;;;5157643;27;20098;-73
2021/12/22 01:05:53;;;;;;;9.43;3.47;;;;;;;;;;5138899;27;20018;-73
2021/12/22 01:08:21;;;;;;;9.30;3.47;;;;;;;;;;5157635;27;20026;-73
2021/12/22 01:10:48;;;;;;;6.05;3.17;;;;;;;;;;5139076;27;20078;-73
2021/12/22 01:13:16;;;;;;;8.77;3.45;;;;;;;;;;5157704;27;20026;-73
2021/12/22 01:15:43;;;;;;;7.75;3.30;;;;;;;;;;5157405;27;20144;-73
2021/12/22 01:18:28;;;;;;;9.07;3.88;;;;;;;;;;5138473;27;20486;-73
2021/12/22 01:21:12;;;;;;;8.48;3.20;;;;;;;;;;5138454;27;20453;-73
2021/12/22 01:24:01;;;;;;;8.43;3.97;;;;;;;;;;5138860;27;20099;-73
2021/12/22 01:26:30;;;;;;;8.17;5.07;;;;;;;;;;5157392;27;20050;-73
2021/12/22 01:28:57;;;;;;;8.43;4.82;;;;;;;;;;5138590;27;20243;-73
2021/12/22 01:31:25;;;;;;;10.23;4.10;;;;;;;;;;5157253;27;20042;-73
2021/12/22 01:33:52;;;;;;;8.57;4.15;;;;;;;;;;5157198;27;20375;-73
2021/12/22 01:36:19;;;;;;;7.25;3.85;;;;;;;;;;5138562;27;20019;-73
2021/12/22 01:38:48;;;;;;;9.02;4.40;;;;;;;;;;5157020;27;20019;-73
2021/12/22 01:41:15;;;;;;;7.45;3.72;;;;;;;;;;5156918;27;20039;-73
2021/12/22 01:43:42;;;;;;;7.45;3.72;;;;;;;;;;5156890;27;20010;-73
2021/12/22 01:46:33;;;;;;;7.25;4.30;;;;;;;;;;5156946;27;20029;-73
2021/12/22 01:49:11;;;;;;;7.65;3.67;;;;;;;;;;5156507;27;20026;-73
2021/12/22 01:52:04;;;;;;;9.05;4.40;;;;;;;;;;5137890;27;20018;-73
2021/12/22 01:54:31;;;;;;;5.93;3.92;;;;;;;;;;5156520;27;20043;-72
2021/12/22 01:57:01;;;;;;;9.35;4.25;;;;;;;;;;5156621;27;20031;-73
2021/12/22 01:59:27;;;;;;;;;;;;;;;;;;5138186;27;20038;-73
2021/12/22 02:01:55;;;;;;;7.10;3.88;;;;;;;;;;5156441;27;19910;-73
2021/12/22 02:04:22;;;;;;;6.95;3.90;;;;;;;;;;5137568;27;20018;-73
2021/12/22 02:06:49;;;;;;;9.10;4.05;;;;;;;;;;5137954;27;20098;-73
2021/12/22 02:09:32;;;;;;;6.97;4.38;;;;;;;;;;5156633;27;20027;-72
2021/12/22 02:11:59;;;;;;;10.20;4.20;;;;;;;;;;5137866;27;20050;-73
2021/12/22 02:14:26;;;;;;;8.45;4.40;;;;;;;;;;5156445;27;20023;-73
2021/12/22 02:16:54;;;;;;;8.13;4.25;;;;;;;;;;5156293;27;20061;-72
2021/12/22 02:19:21;;;;;;;7.45;3.75;;;;;;;;;;5156211;27;20015;-72
2021/12/22 02:21:53;;;;;;;9.70;4.32;;;;;;;;;;5156090;27;20078;-73
2021/12/22 02:24:20;;;;;;;7.78;3.67;;;;;;;;;;5137661;27;20019;-73
2021/12/22 02:27:03;;;;;;;8.35;3.70;;;;;;;;;;5156004;27;20034;-73
2021/12/22 02:29:39;;;;;;;7.20;4.35;;;;;;;;;;5156148;27;20027;-73
2021/12/22 02:32:19;;;;;;;6.60;4.30;;;;;;;;;;5137420;27;20031;-73
2021/12/22 02:34:48;;;;;;;10.10;4.72;;;;;;;;;;5137221;27;20118;-72
2021/12/22 02:37:18;;;;;;;8.35;4.13;;;;;;;;;;5137009;27;20022;-73
2021/12/22 02:39:47;;;;;;;5.55;3.80;;;;;;;;;;5137062;27;20022;-72
2021/12/22 02:42:18;;;;;;;5.25;3.53;;;;;;;;;;5155616;27;20144;-72
2021/12/22 02:44:45;;;;;;;7.85;3.67;;;;;;;;;;5136963;27;20022;-72
2021/12/22 02:47:20;;;;;;;6.53;3.45;;;;;;;;;;5155627;27;20126;-73
2021/12/22 02:49:47;;;;;;;5.85;3.28;;;;;;;;;;5136657;27;20067;-73
2021/12/22 02:52:15;;;;;;;6.78;3.20;;;;;;;;;;5155541;27;20072;-73
2021/12/22 02:54:48;;;;;;;5.45;3.15;;;;;;;;;;5136560;27;20176;-72
2021/12/22 02:57:33;;;;;;;7.63;3.17;;;;;;;;;;5136881;27;20456;-72
2021/12/22 03:03:04;;;;;;;6.72;3.83;;;;;;;;;;5155578;27;20049;-73
2021/12/22 03:05:33;;;;;;;6.60;3.63;;;;;;;;;;5155251;27;20046;-73
2021/12/22 03:08:00;;;;;;;6.38;3.67;;;;;;;;;;5155289;27;20428;-73
2021/12/22 03:10:27;;;;;;;7.30;4.18;;;;;;;;;;5136278;27;20627;-73
2021/12/22 03:13:01;;;;;;;5.60;3.42;;;;;;;;;;5155209;27;20026;-73
2021/12/22 03:15:28;;;;;;;6.35;3.33;;;;;;;;;;5155262;27;20470;-73
2021/12/22 03:17:56;;;;;;;6.63;3.55;;;;;;;;;;5155061;27;20106;-73
2021/12/22 03:20:23;;;;;;;8.38;3.90;;;;;;;;;;5136289;27;20067;-73
2021/12/22 03:22:51;;;;;;;8.52;4.30;;;;;;;;;;5155032;27;20479;-73
2021/12/22 03:25:25;;;;;;;6.97;3.65;;;;;;;;;;5155032;27;20383;-73
2021/12/22 03:27:53;;;;;;;6.50;3.80;;;;;;;;;;5135995;27;20052;-73
2021/12/22 03:30:22;;;;;;;7.70;3.45;;;;;;;;;;5154979;27;20034;-73
2021/12/22 03:32:50;;;;;;;6.37;3.37;;;;;;;;;;5154908;27;20022;-73
2021/12/22 03:35:19;;;;;;;7.45;3.80;;;;;;;;;;5135875;27;20337;-73
2021/12/22 03:37:49;;;;;;;7.30;3.63;;;;;;;;;;5154744;27;20050;-73
2021/12/22 03:40:17;;;;;;;6.15;3.30;;;;;;;;;;5135947;27;20027;-73
2021/12/22 03:42:45;;;;;;;6.18;2.95;;;;;;;;;;5154727;27;20031;-73
2021/12/22 03:45:12;;;;;;;6.07;3.10;;;;;;;;;;5154694;27;20019;-73
2021/12/22 03:47:39;;;;;;;10.98;3.45;;;;;;;;;;5154661;27;20187;-73
2021/12/22 03:50:07;;;;;;;9.68;4.10;;;;;;;;;;5136186;27;20034;-73
2021/12/22 03:52:35;;;;;;;10.82;3.80;;;;;;;;;;5154496;27;20019;-74
2021/12/22 03:55:02;;;;;;;11.65;3.67;;;;;;;;;;5154615;27;20098;-73
2021/12/22 03:57:30;;;;;;;10.13;3.80;;;;;;;;;;5154519;27;20029;-74
2021/12/22 03:59:59;;;;;;;10.60;3.95;;;;;;;;;;5135582;27;20527;-73
2021/12/22 04:02:27;;;;;;;14.48;4.22;;;;;;;;;;5136069;27;20019;-73
2021/12/22 04:04:55;;;;;;;11.48;4.05;;;;;;;;;;5154331;27;20113;-73
2021/12/22 04:07:22;;;;;;;10.02;4.07;;;;;;;;;;5154462;27;20030;-73
2021/12/22 04:09:49;;;;;;;12.10;4.20;;;;;;;;;;5154503;27;20027;-73
2021/12/22 04:12:16;;;;;;;13.07;4.07;;;;;;;;;;5154419;27;20050;-73
2021/12/22 04:14:43;;;;;;;13.50;4.60;;;;;;;;;;5135835;27;20027;-74
2021/12/22 04:17:11;;;;;;;15.02;4.88;;;;;;;;;;5154300;27;20497;-73
2021/12/22 04:19:38;;;;;;;11.00;4.68;;;;;;;;;;5135549;27;20040;-73
2021/12/22 04:22:06;;;;;;;11.15;4.95;;;;;;;;;;5155486;27;20015;-73
2021/12/22 04:24:33;;;;;;;13.25;4.65;;;;;;;;;;5139686;27;20023;-73
2021/12/22 04:27:00;;;;;;;13.45;4.80;;;;;;;;;;5139897;27;20435;-73
2021/12/22 04:29:27;;;;;;;10.90;4.63;;;;;;;;;;5158382;27;20026;-74
2021/12/22 04:31:55;;;;;;;11.18;4.70;;;;;;;;;;5139336;27;20027;-74
2021/12/22 04:34:22;;;;;;;10.88;4.90;;;;;;;;;;5158182;27;20098;-73
2021/12/22 04:36:49;;;;;;;12.38;4.95;;;;;;;;;;5158143;27;20026;-73
2021/12/22 04:39:16;;;;;;;10.77;4.65;;;;;;;;;;5158074;27;20071;-73
2021/12/22 04:41:43;;;;;;;12.57;5.45;;;;;;;;;;5139115;27;20022;-73
2021/12/22 04:44:10;;;;;;;10.80;4.80;;;;;;;;;;5158222;27;20482;-73
2021/12/22 04:46:38;;;;;;;11.98;5.38;;;;;;;;;;5157961;27;20019;-73
2021/12/22 04:49:05;;;;;;;11.95;4.90;;;;;;;;;;5139015;27;20022;-73
2021/12/22 04:51:34;;;;;;;9.65;4.50;;;;;;;;;;5157782;27;20046;-73
2021/12/22 04:54:33;;;;;;;14.32;5.40;;;;;;;;;;5157762;27;20070;-73
2021/12/22 04:57:00;;;;;;;12.80;4.80;;;;;;;;;;5157883;27;20023;-73
2021/12/22 04:59:27;;;;;;;9.68;5.50;;;;;;;;;;5157681;27;20428;-73
2021/12/22 05:01:56;;;;;;;12.98;5.10;;;;;;;;;;5157709;27;20018;-73
2021/12/22 05:04:23;;;;;;;12.50;4.93;;;;;;;;;;5139093;27;20030;-73
2021/12/22 05:06:50;;;;;;;14.80;5.03;;;;;;;;;;5157611;27;20026;-73
2021/12/22 05:09:17;;;;;;;13.13;5.15;;;;;;;;;;5138954;27;20391;-71
2021/12/22 05:11:44;;;;;;;14.35;5.25;;;;;;;;;;5157569;27;20027;-73
2021/12/22 05:14:11;;;;;;;12.73;5.68;;;;;;;;;;5157566;27;20475;-72
2021/12/22 05:16:45;;;;;;;11.65;5.15;;;;;;;;;;5157543;27;20027;-72
2021/12/22 05:19:15;;;;;;;14.50;6.03;;;;;;;;;;5138704;27;20471;-72
2021/12/22 05:21:42;;;;;;;;;;;;;;;;;;5157683;27;20142;-72
2021/12/22 05:24:09;;;;;;;10.32;5.50;;;;;;;;;;5157193;27;19942;-72
2021/12/22 05:26:37;;;;;;;11.25;5.60;;;;;;;;;;5157302;27;20035;-73
2021/12/22 05:29:04;;;;;;;14.75;6.05;;;;;;;;;;5157192;27;20102;-73
2021/12/22 05:31:31;;;;;;;13.40;5.80;;;;;;;;;;5138468;27;20110;-72
2021/12/22 05:33:59;;;;;;;11.27;5.45;;;;;;;;;;5156741;27;20019;-72
2021/12/22 05:36:26;;;;;;;12.65;6.03;;;;;;;;;;5157012;27;20015;-72
2021/12/22 05:38:53;;;;;;;16.40;6.10;;;;;;;;;;5156982;27;20023;-72
2021/12/22 05:41:20;;;;;;;12.70;6.35;;;;;;;;;;5157045;27;20022;-72
2021/12/22 05:43:47;;;;;;;11.98;5.80;;;;;;;;;;5157068;27;20067;-71
2021/12/22 05:46:15;;;;;;;15.82;6.40;;;;;;;;;;5156861;27;20066;-72
2021/12/22 05:48:42;;;;;;;13.10;6.25;;;;;;;;;;5138002;27;20070;-72
2021/12/22 05:51:09;;;;;;;13.88;5.88;;;;;;;;;;5156904;27;20484;-72
2021/12/22 05:53:36;;;;;;;12.82;5.63;;;;;;;;;;5156657;27;20074;-72
2021/12/22 05:56:04;;;;;;;11.20;6.10;;;;;;;;;;5156683;27;20023;-72
2021/12/22 05:58:31;;;;;;;15.40;6.25;;;;;;;;;;5156691;27;20030;-72
2021/12/22 06:00:58;;;;;;;12.65;6.18;;;;;;;;;;5138116;27;20155;-72
2021/12/22 06:03:26;;;;;;;11.05;5.78;;;;;;;;;;5156556;27;20086;-72
2021/12/22 06:05:53;;;;;;;11.68;5.38;;;;;;;;;;5156540;27;20018;-71
2021/12/22 06:08:20;;;;;;;13.27;5.78;;;;;;;;;;5137947;27;20113;-72
2021/12/22 06:10:47;;;;;;;9.85;5.85;;;;;;;;;;5156391;27;20030;-72
2021/12/22 06:13:14;;;;;;;11.55;5.07;;;;;;;;;;5156202;27;20367;-71
2021/12/22 06:15:41;;;;;;;11.82;5.78;;;;;;;;;;5156163;27;20482;-72
2021/12/22 06:18:09;;;;;;;10.88;4.78;;;;;;;;;;5137169;27;20030;-72
2021/12/22 06:20:37;;;;;;;10.85;5.18;;;;;;;;;;5156315;27;20382;-72
2021/12/22 06:23:04;;;;;;;13.93;5.10;;;;;;;;;;5156348;27;20045;-72
2021/12/22 06:25:31;;;;;;;11.35;4.75;;;;;;;;;;5156186;27;20022;-72
2021/12/22 06:27:58;;;;;;;13.25;5.07;;;;;;;;;;5156121;27;20402;-71
2021/12/22 06:30:25;;;;;;;9.73;4.00;;;;;;;;;;5136982;27;20023;-72
2021/12/22 06:32:53;;;;;;;9.45;3.90;;;;;;;;;;5155944;27;20070;-72
2021/12/22 06:35:20;;;;;;;12.23;4.38;;;;;;;;;;5137226;27;20027;-72
2021/12/22 06:37:47;;;;;;;10.80;4.28;;;;;;;;;;5137048;27;20038;-72
2021/12/22 06:40:15;;;;;;;8.32;3.75;;;;;;;;;;5137106;27;20038;-72
2021/12/22 06:42:42;;;;;;;10.35;3.92;;;;;;;;;;5137212;27;20018;-72
2021/12/22 06:45:11;;;;;;;11.52;3.47;;;;;;;;;;5155031;27;20027;-71
2021/12/22 06:47:38;;;;;;;7.72;3.45;;;;;;;;;;5155635;27;20046;-71
2021/12/22 06:50:06;;;;;;;11.77;4.18;;;;;;;;;;5155747;27;20022;-71
2021/12/22 06:52:34;;;;;;;8.05;3.22;;;;;;;;;;5136557;27;20023;-71
2021/12/22 06:55:01;;;;;;;12.13;3.80;;;;;;;;;;5136751;27;20026;-71
2021/12/22 06:57:30;;;;;;;9.52;3.67;;;;;;;;;;5155325;27;20057;-72
2021/12/22 06:59:58;;;;;;;12.35;3.70;;;;;;;;;;5155412;27;20018;-72
2021/12/22 07:02:26;;;;;;;12.48;3.90;;;;;;;;;;5136729;27;20019;-72
2021/12/22 07:04:54;;;;;;;8.23;2.70;;;;;;;;;;5155168;27;20014;-72
2021/12/22 07:07:21;;;;;;;13.43;3.78;;;;;;;;;;5136701;27;20046;-72
2021/12/22 07:09:48;;;;;;;7.97;3.10;;;;;;;;;;5136734;27;20436;-72
2021/12/22 07:12:15;;;;;;;9.98;3.15;;;;;;;;;;5155231;27;20018;-72
2021/12/22 07:14:43;;;;;;;11.13;3.25;;;;;;;;;;5136177;27;20055;-72
2021/12/22 07:17:10;;;;;;;8.88;3.15;;;;;;;;;;5155134;27;20386;-71
2021/12/22 07:19:37;;;;;;;7.93;3.30;;;;;;;;;;5155069;27;20050;-72
2021/12/22 07:22:05;;;;;;;6.75;3.08;;;;;;;;;;5154978;27;20015;-72
2021/12/22 07:24:33;;;;;;;6.25;2.95;;;;;;;;;;5154907;27;20018;-72
2021/12/22 07:27:00;;;;;;;9.68;3.22;;;;;;;;;;5154936;27;20023;-72
2021/12/22 07:29:27;;;;;;;10.75;3.88;;;;;;;;;;5154972;27;20498;-72
2021/12/22 07:31:54;;;;;;;8.30;2.92;;;;;;;;;;5136327;27;20025;-72
2021/12/22 07:34:29;;;;;;;12.82;2.80;;;;;;;;;;5154892;27;20023;-72
2021/12/22 07:37:00;;;;;;;9.65;2.70;;;;;;;;;;5136338;27;20033;-72
2021/12/22 07:39:27;;;;;;;10.48;2.60;;;;;;;;;;5154851;27;20360;-72
2021/12/22 07:41:54;;;;;;;11.65;3.20;;;;;;;;;;5154818;27;20388;-72
2021/12/22 07:44:21;;;;;;;9.98;3.17;;;;;;;;;;5135711;27;20026;-72
2021/12/22 07:46:49;;;;;;;9.40;2.60;;;;;;;;;;5154688;27;20072;-71
2021/12/22 07:49:16;;;;;;;8.48;2.72;;;;;;;;;;5135616;27;20019;-71
2021/12/22 07:51:43;;;;;;;8.75;3.40;;;;;;;;;;5154660;27;20391;-72
2021/12/22 07:54:10;;;;;;;10.85;3.40;;;;;;;;;;5154394;27;20047;-71
2021/12/22 07:56:37;;;;;;;9.38;2.90;;;;;;;;;;5135892;27;20019;-71
2021/12/22 07:59:05;;;;;;;12.30;2.92;;;;;;;;;;5135538;27;20034;-72
2021/12/22 08:01:32;;;;;;;8.43;2.65;;;;;;;;;;5154535;27;20367;-72
2021/12/22 08:04:00;;;;;;;8.90;3.03;;;;;;;;;;5154355;27;20083;-71
2021/12/22 08:06:27;;;;;;;13.30;2.88;;;;;;;;;;5135626;27;20027;-72
2021/12/22 08:08:54;;;;;;;6.75;2.80;;;;;;;;;;5154389;27;20046;-72
2021/12/22 08:11:21;;;;;;;9.48;3.08;;;;;;;;;;5154548;27;20023;-72
2021/12/22 08:13:49;;;;;;;9.00;2.67;;;;;;;;;;5154326;27;20034;-72
2021/12/22 08:16:16;;;;;;;8.63;3.40;;;;;;;;;;5154404;27;20424;-72
2021/12/22 08:18:43;;;;;;;9.45;3.03;;;;;;;;;;5154330;27;20446;-72
2021/12/22 08:21:10;;;;;;;8.27;2.92;;;;;;;;;;5154436;27;20023;-72
2021/12/22 08:23:37;;;;;;;9.43;2.53;;;;;;;;;;5154247;27;20014;-72
2021/12/22 08:26:05;;;;;;;12.98;3.15;;;;;;;;;;5154235;27;20408;-72
2021/12/22 08:28:32;;;;;;;8.75;2.95;;;;;;;;;;5154277;27;20022;-72
2021/12/22 08:30:59;;;;;;;7.40;2.65;;;;;;;;;;5154333;27;20382;-72
2021/12/22 08:33:30;;;;;;;10.88;3.05;;;;;;;;;;5154348;27;20042;-71
2021/12/22 08:38:57;;;;;;;11.77;2.65;;;;;;;;;;5154283;27;20037;-72
2021/12/22 08:41:25;;;;;;;6.70;2.30;;;;;;;;;;5135331;27;20019;-72
2021/12/22 08:43:54;;;;;;;8.98;2.83;;;;;;;;;;5154216;27;20022;-72
2021/12/22 08:46:21;;;;;;;10.40;2.85;;;;;;;;;;5154138;27;20432;-71
2021/12/22 08:48:49;;;;;;;8.57;2.88;;;;;;;;;;5135178;27;20026;-72
2021/12/22 08:51:16;;;;;;;8.88;2.80;;;;;;;;;;5135357;27;20451;-72
2021/12/22 08:53:43;;;;;;;9.50;3.08;;;;;;;;;;5153887;27;20492;-72
2021/12/22 08:56:10;;;;;;;8.50;2.72;;;;;;;;;;5153941;27;20029;-71
2021/12/22 08:58:38;;;;;;;10.75;3.08;;;;;;;;;;5134993;27;20038;-72
2021/12/22 09:01:05;;;;;;;7.55;2.72;;;;;;;;;;5153964;27;20019;-72
2021/12/22 09:03:33;;;;;;;10.13;2.67;;;;;;;;;;5153800;27;20034;-72
2021/12/22 09:06:00;;;;;;;8.57;3.00;;;;;;;;;;5153920;27;20022;-71
2021/12/22 09:08:27;;;;;;;7.68;2.78;;;;;;;;;;5137096;27;20027;-72
2021/12/22 09:10:54;;;;;;;9.82;3.30;;;;;;;;;;5157672;27;20117;-72
2021/12/22 09:13:22;;;;;;;10.57;2.70;;;;;;;;;;5138844;27;20462;-72
2021/12/22 09:15:49;;;;;;;10.30;2.47;;;;;;;;;;5138727;27;20405;-72
2021/12/22 09:18:18;;;;;;;8.60;2.55;;;;;;;;;;5138447;27;20025;-71
2021/12/22 09:20:46;;;;;;;10.70;2.90;;;;;;;;;;5157464;27;20382;-72
2021/12/22 09:23:13;;;;;;;9.30;3.10;;;;;;;;;;5138583;27;20332;-72
2021/12/22 09:25:41;;;;;;;11.55;3.17;;;;;;;;;;5157380;27;20023;-72
2021/12/22 09:28:09;;;;;;;9.40;3.28;;;;;;;;;;5138924;27;20035;-72
2021/12/22 09:30:38;;;;;;;14.07;3.72;;;;;;;;;;5157306;27;20027;-72
2021/12/22 09:33:07;;;;;;;10.93;3.17;;;;;;;;;;5138728;27;20466;-72
2021/12/22 09:35:35;;;;;;;7.82;3.03;;;;;;;;;;5138461;27;20141;-72
2021/12/22 09:38:02;;;;;;;7.93;3.22;;;;;;;;;;5157170;27;20074;-72
2021/12/22 09:40:29;;;;;;;10.23;2.72;;;;;;;;;;5157155;27;20550;-72
2021/12/22 09:42:56;;;;;;;10.43;2.90;;;;;;;;;;5157137;27;20462;-72
2021/12/22 09:45:25;;;;;;;11.73;3.33;;;;;;;;;;5156932;27;20018;-71
2021/12/22 09:50:53;;;;;;;9.27;2.47;;;;;;;;;;5157030;27;20019;-72
2021/12/22 09:53:23;;;;;;;10.98;3.25;;;;;;;;;;5156870;27;20119;-73
2021/12/22 09:55:51;;;;;;;12.48;3.35;;;;;;;;;;5138305;27;20027;-72
2021/12/22 09:58:18;;;;;;;9.77;3.13;;;;;;;;;;5156775;27;20023;-72
2021/12/22 10:00:46;;;;;;;11.80;3.30;;;;;;;;;;5156756;27;20494;-72
2021/12/22 10:03:13;;;;;;;10.55;2.97;;;;;;;;;;5138149;27;20067;-71
2021/12/22 10:05:42;;;;;;;9.82;3.00;;;;;;;;;;5156614;27;20424;-72
2021/12/22 10:08:12;;;;;;;12.18;3.22;;;;;;;;;;5156649;27;20516;-72
2021/12/22 10:11:06;;;;;;;9.75;3.28;;;;;;;;;;5137700;27;20414;-71
2021/12/22 10:13:34;;;;;;;12.35;3.58;;;;;;;;;;5153256;27;20444;-72
2021/12/22 10:16:10;;;;;;;13.65;3.30;;;;;;;;;;5156781;27;20026;-72
2021/12/22 10:18:37;;;;;;;10.38;3.22;;;;;;;;;;5137349;27;20424;-72
2021/12/22 10:21:10;;;;;;;10.27;3.88;;;;;;;;;;5136666;27;20057;-72
2021/12/22 10:23:38;;;;;;;11.45;3.38;;;;;;;;;;5137512;27;20033;-72
2021/12/22 10:26:07;;;;;;;12.70;2.88;;;;;;;;;;5156295;27;20022;-72
2021/12/22 10:28:48;;;;;;;10.32;2.60;;;;;;;;;;5137648;27;20527;-71
2021/12/22 10:31:16;;;;;;;9.80;3.10;;;;;;;;;;5156153;27;20031;-71
2021/12/22 10:33:43;;;;;;;14.68;3.25;;;;;;;;;;5156151;27;20032;-72
2021/12/22 10:36:15;;;;;;;12.15;3.60;;;;;;;;;;5137499;27;20392;-72
2021/12/22 10:38:48;;;;;;;12.70;3.05;;;;;;;;;;5137295;27;20026;-72
2021/12/22 10:41:15;;;;;;;12.52;3.35;;;;;;;;;;5155885;27;20068;-72
2021/12/22 10:43:45;;;;;;;10.90;2.80;;;;;;;;;;5155832;27;20022;-71
2021/12/22 10:46:16;;;;;;;9.55;2.78;;;;;;;;;;5155880;27;20162;-71
2021/12/22 10:51:33;;;;;;;11.45;3.15;;;;;;;;;;5156000;27;20037;-72
2021/12/22 10:54:01;;;;;;;13.35;3.53;;;;;;;;;;5136841;27;20418;-73
2021/12/22 10:56:29;;;;;;;8.57;2.70;;;;;;;;;;5136973;27;20026;-73
2021/12/22 10:59:02;;;;;;;15.15;3.25;;;;;;;;;;5155411;27;20029;-72
2021/12/22 11:01:29;;;;;;;9.85;2.80;;;;;;;;;;5137372;27;20028;-73
2021/12/22 11:04:03;;;;;;;12.93;3.17;;;;;;;;;;5155391;27;20026;-72
2021/12/22 11:06:31;;;;;;;11.88;2.90;;;;;;;;;;5155425;27;20014;-73
2021/12/22 11:08:58;;;;;;;12.73;3.38;;;;;;;;;;5155342;27;20463;-72
2021/12/22 11:11:30;;;;;;;13.93;3.53;;;;;;;;;;5155373;27;20067;-72
2021/12/22 11:14:04;;;;;;;10.05;3.22;;;;;;;;;;5155356;27;20439;-72
2021/12/22 11:16:32;;;;;;;10.98;2.88;;;;;;;;;;5136817;27;20030;-73
2021/12/22 11:19:09;;;;;;;11.93;3.38;;;;;;;;;;5155280;27;20534;-73
2021/12/22 11:21:37;;;;;;;12.57;3.10;;;;;;;;;;5155186;27;20022;-73
2021/12/22 11:24:04;;;;;;;13.70;3.15;;;;;;;;;;5155069;27;20015;-72
2021/12/22 11:26:32;;;;;;;10.95;2.85;;;;;;;;;;5155061;27;20474;-72
2021/12/22 11:28:59;;;;;;;15.25;3.97;;;;;;;;;;5136490;27;20087;-72
2021/12/22 11:31:26;;;;;;;9.48;3.47;;;;;;;;;;5136097;27;20018;-72
2021/12/22 11:33:54;;;;;;;11.50;3.05;;;;;;;;;;5155078;27;20535;-72
2021/12/22 11:36:21;;;;;;;12.07;3.53;;;;;;;;;;5154865;27;20071;-71
2021/12/22 11:38:49;;;;;;;14.60;3.08;;;;;;;;;;5154781;27;20026;-71
2021/12/22 11:41:19;;;;;;;10.73;3.22;;;;;;;;;;5136403;27;20019;-71
2021/12/22 11:43:48;;;;;;;14.25;3.03;;;;;;;;;;5154979;27;20036;-72
2021/12/22 11:46:16;;;;;;;12.60;3.97;;;;;;;;;;5154903;27;20023;-72
2021/12/22 11:48:44;;;;;;;11.40;2.95;;;;;;;;;;5154757;27;20043;-72
2021/12/22 11:51:40;;;;;;;10.63;3.38;;;;;;;;;;5135971;27;20125;-72
2021/12/22 11:54:09;;;;;;;13.20;3.50;;;;;;;;;;5133064;27;20046;-73
2021/12/22 11:56:36;;;;;;;13.73;3.83;;;;;;;;;;5135990;27;20499;-73
2021/12/22 11:59:03;;;;;;;14.75;3.58;;;;;;;;;;5154662;27;20202;-72
2021/12/22 12:01:30;;;;;;;13.80;3.83;;;;;;;;;;5154625;27;20042;-72
2021/12/22 12:04:17;;;;;;;10.30;3.30;;;;;;;;;;5135649;27;20030;-71
2021/12/22 12:06:48;;;;;;;14.90;4.15;;;;;;;;;;5154661;27;20019;-72
2021/12/22 12:09:16;;;;;;;12.50;3.95;;;;;;;;;;5154545;27;20042;-72
2021/12/22 12:11:56;;;;;;;16.55;4.20;;;;;;;;;;5154691;27;20091;-72
2021/12/22 12:23:17;;;;;;;13.05;3.60;;;;;;;;;;5154486;27;20071;-72
2021/12/22 12:25:45;;;;;;;13.43;3.33;;;;;;;;;;5154547;27;20022;-72
2021/12/22 12:28:19;;;;;;;9.77;2.75;;;;;;;;;;5154179;27;20049;-72
2021/12/22 12:30:50;;;;;;;9.95;3.45;;;;;;;;;;5154490;27;20026;-72
2021/12/22 12:33:31;;;;;;;11.85;3.47;;;;;;;;;;5135837;27;20030;-72
2021/12/22 12:36:04;;;;;;;13.07;3.22;;;;;;;;;;5154241;27;20429;-72
2021/12/22 12:38:51;;;;;;;12.80;3.33;;;;;;;;;;5154297;27;20021;-71
2021/12/22 12:41:18;;;;;;;15.43;3.72;;;;;;;;;;5154163;27;20019;-72
2021/12/22 12:43:52;;;;;;;10.63;3.22;;;;;;;;;;5156472;27;20019;-72
2021/12/22 12:46:24;;;;;;;11.25;3.08;;;;;;;;;;5139497;27;20135;-72
2021/12/22 12:49:11;;;;;;;8.38;3.40;;;;;;;;;;5139319;27;20062;-71
2021/12/22 12:51:46;;;;;;;14.10;3.40;;;;;;;;;;5158084;27;20501;-71
2021/12/22 12:54:24;;;;;;;12.38;3.22;;;;;;;;;;5157849;27;20176;-71
2021/12/22 12:56:57;;;;;;;10.77;3.45;;;;;;;;;;5158125;27;20023;-71
2021/12/22 12:59:44;;;;;;;11.55;3.45;;;;;;;;;;5139441;27;20027;-72
2021/12/22 13:02:22;;;;;;;10.43;3.55;;;;;;;;;;5138990;27;20014;-72
2021/12/22 13:04:49;;;;;;;12.40;3.15;;;;;;;;;;5157774;27;20015;-71
2021/12/22 13:07:20;;;;;;;10.77;3.65;;;;;;;;;;5157851;27;20067;-71
2021/12/22 13:09:48;;;;;;;12.95;3.05;;;;;;;;;;5139276;27;20034;-72
2021/12/22 13:12:32;;;;;;;12.30;3.33;;;;;;;;;;5157811;27;20022;-71
2021/12/22 13:17:45;;;;;;;11.48;3.58;;;;;;;;;;5157687;27;20166;-72
2021/12/22 13:20:14;;;;;;;12.50;3.90;;;;;;;;;;5157531;27;20093;-71
2021/12/22 13:22:42;;;;;;;13.52;3.35;;;;;;;;;;5138737;27;20023;-71
2021/12/22 13:25:18;;;;;;;11.05;3.20;;;;;;;;;;5157392;27;20509;-72
2021/12/22 13:27:52;;;;;;;11.77;3.75;;;;;;;;;;5157478;27;20025;-72
2021/12/22 13:30:24;;;;;;;9.45;3.03;;;;;;;;;;5138928;27;20075;-72
2021/12/22 13:33:05;;;;;;;11.88;3.30;;;;;;;;;;5157383;27;20107;-72
2021/12/22 13:35:34;;;;;;;12.00;4.28;;;;;;;;;;5138688;27;20023;-71
2021/12/22 13:38:02;;;;;;;11.52;3.38;;;;;;;;;;5157161;27;20042;-72
2021/12/22 13:40:52;;;;;;;14.63;3.75;;;;;;;;;;5138228;27;20021;-72
2021/12/22 13:43:26;;;;;;;11.90;3.40;;;;;;;;;;5144253;27;20546;-72
2021/12/22 13:45:55;;;;;;;14.77;3.65;;;;;;;;;;5138429;27;20092;-72
2021/12/22 13:48:26;;;;;;;9.73;2.90;;;;;;;;;;5138535;27;20443;-72
2021/12/22 13:50:54;;;;;;;12.48;3.70;;;;;;;;;;5138216;27;20030;-72
2021/12/22 13:53:22;;;;;;;13.05;3.30;;;;;;;;;;5137769;27;20042;-72
2021/12/22 13:55:51;;;;;;;13.07;4.45;;;;;;;;;;5156906;27;20054;-72
2021/12/22 13:58:34;;;;;;;11.90;3.28;;;;;;;;;;5138034;27;20038;-72
2021/12/22 14:01:12;;;;;;;13.15;3.17;;;;;;;;;;5137960;27;20019;-72
2021/12/22 14:03:39;;;;;;;10.23;3.78;;;;;;;;;;5138079;27;20072;-72
2021/12/22 14:06:07;;;;;;;10.38;3.75;;;;;;;;;;5156688;27;20021;-72
2021/12/22 14:08:35;;;;;;;11.55;4.03;;;;;;;;;;5138135;27;20061;-72
2021/12/22 14:11:02;;;;;;;10.40;3.42;;;;;;;;;;5137851;27;20038;-72
2021/12/22 14:13:30;;;;;;;11.02;4.00;;;;;;;;;;5156520;27;20049;-72
2021/12/22 14:15:57;;;;;;;11.68;3.78;;;;;;;;;;5137740;27;20051;-72
2021/12/22 14:18:34;;;;;;;13.68;3.65;;;;;;;;;;5156480;27;20031;-72
2021/12/22 14:21:02;;;;;;;11.52;3.60;;;;;;;;;;5137976;27;20030;-72
2021/12/22 14:23:29;;;;;;;12.25;3.85;;;;;;;;;;5156341;27;20039;-72
2021/12/22 14:26:07;;;;;;;11.60;3.85;;;;;;;;;;5156326;27;20014;-72
2021/12/22 14:28:35;;;;;;;11.02;4.00;;;;;;;;;;5156323;27;20475;-72
2021/12/22 14:31:10;;;;;;;10.45;3.58;;;;;;;;;;5156241;27;20053;-72
2021/12/22 14:33:37;;;;;;;13.77;4.55;;;;;;;;;;5137567;27;20027;-72
2021/12/22 14:36:09;;;;;;;11.98;4.55;;;;;;;;;;5137305;27;20159;-72
2021/12/22 14:38:37;;;;;;;12.93;4.20;;;;;;;;;;5156180;27;20491;-72
2021/12/22 14:41:08;;;;;;;10.02;3.85;;;;;;;;;;5155968;27;20094;-71
2021/12/22 14:43:37;;;;;;;10.68;3.83;;;;;;;;;;5136907;27;20044;-71
2021/12/22 14:46:04;;;;;;;9.48;3.70;;;;;;;;;;5136839;27;20059;-71
2021/12/22 14:48:33;;;;;;;13.20;4.00;;;;;;;;;;5137069;27;20423;-71
2021/12/22 14:51:08;;;;;;;15.73;4.88;;;;;;;;;;5155805;27;20019;-71
2021/12/22 14:53:43;;;;;;;14.90;4.25;;;;;;;;;;5136692;27;20134;-72
2021/12/22 14:56:15;;;;;;;13.32;4.10;;;;;;;;;;5155725;27;20033;-71
2021/12/22 14:58:42;;;;;;;12.68;4.32;;;;;;;;;;5155693;27;20045;-71
2021/12/22 15:01:12;;;;;;;11.27;4.10;;;;;;;;;;5137117;27;20021;-71
2021/12/22 15:03:39;;;;;;;14.00;4.68;;;;;;;;;;5155548;27;20014;-72
2021/12/22 15:06:08;;;;;;;14.18;3.90;;;;;;;;;;5154988;27;20018;-71
2021/12/22 15:08:35;;;;;;;12.07;4.68;;;;;;;;;;5155624;27;20483;-71
2021/12/22 15:11:03;;;;;;;11.45;3.72;;;;;;;;;;5155563;27;20412;-71
2021/12/22 15:13:30;;;;;;;12.40;4.30;;;;;;;;;;5155434;27;20048;-72